Biggs, Illinois
Current Conditions -  °F | °C
As of 12:15 PM on Thursday 29 Jan 2015 (Local Time) from KAAA Reporting Station
Overcast Overcast  
Wind Chill: 32°   Ceiling: 2200
Heat Index: 38°   Visibility: 10mi
Dew Point: 32°   Wind: 8mph
Humidity: 77%   Direction: 310°NW
Pressure: 30.07"   Gusts: 18mph
Location:  40.2326°N, 89.8458°W
Report Text: KAAA 291815Z AUTO 31007G16KT 10SM OVC022 04/00 A3007 RMK AO2 T00351002
Loading
Personal Weather Stations






























Interactive Weather Map New forecast layout! Learn more

10-Day Weather Forecast

Advertisements
Track Severe Weather on mobile